createdAt,value
2023-04-28T00:02:00.234Z,51.09
2023-04-28T00:04:22.273Z,51.47
2023-04-28T00:06:44.514Z,51.93
2023-04-28T00:09:06.358Z,51.87
2023-04-28T00:11:28.114Z,51.90
2023-04-28T00:13:49.863Z,52.25
2023-04-28T00:16:11.556Z,52.56
2023-04-28T00:18:33.730Z,52.08
2023-04-28T00:20:56.746Z,51.98
2023-04-28T00:23:18.568Z,52.29
2023-04-28T00:25:40.274Z,52.19
2023-04-28T00:28:02.374Z,52.45
2023-04-28T00:30:25.297Z,52.36
2023-04-28T00:32:47.036Z,52.60
2023-04-28T00:35:09.534Z,52.63
2023-04-28T00:37:31.245Z,52.75
2023-04-28T00:39:56.645Z,53.17
2023-04-28T00:42:20.545Z,53.41
2023-04-28T00:44:42.239Z,53.43
2023-04-28T00:47:04.400Z,53.82
2023-04-28T00:49:27.490Z,54.09
2023-04-28T00:51:49.099Z,53.75
2023-04-28T00:54:14.957Z,53.75
2023-04-28T00:56:37.080Z,53.59
2023-04-28T00:58:58.879Z,53.52
2023-04-28T01:01:20.617Z,53.92
2023-04-28T01:03:42.557Z,54.37
2023-04-28T01:06:06.671Z,54.36
2023-04-28T01:08:31.582Z,54.30
2023-04-28T01:10:56.246Z,54.44
2023-04-28T01:13:38.126Z,54.20
2023-04-28T01:16:00.969Z,54.89
2023-04-28T01:18:23.530Z,54.92
2023-04-28T01:20:45.448Z,55.33
2023-04-28T01:23:16.454Z,55.23
2023-04-28T01:25:38.689Z,55.18
2023-04-28T01:28:00.440Z,55.67
2023-04-28T01:30:22.691Z,55.73
2023-04-28T01:32:44.985Z,56.17
2023-04-28T01:35:07.244Z,56.55
2023-04-28T01:37:30.662Z,56.39
2023-04-28T01:39:52.447Z,56.23
2023-04-28T01:42:14.148Z,56.75
2023-04-28T01:44:35.987Z,56.51
2023-04-28T01:46:57.685Z,56.44
2023-04-28T01:49:19.579Z,56.10
2023-04-28T01:51:42.828Z,56.37
2023-04-28T01:54:05.069Z,56.37
2023-04-28T01:56:26.764Z,56.54
2023-04-28T01:58:50.840Z,56.15
2023-04-28T02:01:13.184Z,56.65
2023-04-28T02:03:35.757Z,56.50
2023-04-28T02:05:58.936Z,56.63
2023-04-28T02:08:20.746Z,56.46
2023-04-28T02:10:42.454Z,56.49
2023-04-28T02:13:04.944Z,56.65
2023-04-28T02:15:27.296Z,57.56
2023-04-28T02:17:48.974Z,57.35
2023-04-28T02:20:12.064Z,57.31
2023-04-28T02:22:33.690Z,57.32
2023-04-28T02:24:55.578Z,57.36
2023-04-28T02:27:18.550Z,57.50
2023-04-28T02:29:40.185Z,57.63
2023-04-28T02:32:02.019Z,57.66
2023-04-28T02:34:23.791Z,57.41
2023-04-28T02:36:45.558Z,57.34
2023-04-28T02:39:07.251Z,57.73
2023-04-28T02:41:31.078Z,57.88
2023-04-28T02:43:52.752Z,58.05
2023-04-28T02:46:14.515Z,58.45
2023-04-28T02:48:37.491Z,58.83
2023-04-28T02:50:59.146Z,59.06
2023-04-28T02:53:22.104Z,59.07
2023-04-28T02:55:44.705Z,59.77
2023-04-28T02:58:06.438Z,60.21
2023-04-28T03:00:28.170Z,60.10
2023-04-28T03:02:50.244Z,60.76
2023-04-28T03:05:12.001Z,60.45
2023-04-28T03:07:33.846Z,60.78
2023-04-28T03:09:55.495Z,61.23
2023-04-28T03:12:17.250Z,61.22
2023-04-28T03:14:41.478Z,61.05
2023-04-28T03:17:03.292Z,61.24
2023-04-28T03:19:26.569Z,61.76
2023-04-28T03:21:48.340Z,61.87
2023-04-28T03:24:10.048Z,61.96
2023-04-28T03:26:32.092Z,62.01
2023-04-28T03:28:53.754Z,62.15
2023-04-28T03:31:16.415Z,62.52
2023-04-28T03:33:38.230Z,62.96
2023-04-28T03:35:59.928Z,63.35
2023-04-28T03:38:22.515Z,63.39
2023-04-28T03:40:44.128Z,63.50
2023-04-28T03:43:05.945Z,63.22
2023-04-28T03:45:32.046Z,63.26
2023-04-28T03:47:53.863Z,63.22
2023-04-28T03:50:15.876Z,63.05
2023-04-28T03:52:37.508Z,63.18
2023-04-28T03:54:59.243Z,63.06
2023-04-28T03:57:20.960Z,63.75
2023-04-28T03:59:42.555Z,63.87
2023-04-28T04:02:05.576Z,63.87
2023-04-28T04:04:27.557Z,63.95
2023-04-28T04:06:52.171Z,64.18
2023-04-28T04:09:14.172Z,64.76
2023-04-28T04:11:35.987Z,64.70
2023-04-28T04:13:57.697Z,65.07
2023-04-28T04:16:21.953Z,65.21
2023-04-28T04:18:43.867Z,65.66
2023-04-28T04:21:14.412Z,65.33
2023-04-28T04:23:36.214Z,65.51
2023-04-28T04:25:57.937Z,65.65
2023-04-28T04:28:19.625Z,66.48
2023-04-28T04:30:41.408Z,67.15
2023-04-28T04:33:03.178Z,67.51
2023-04-28T04:35:25.099Z,67.34
2023-04-28T04:37:47.788Z,67.04
2023-04-28T04:40:11.682Z,67.65
2023-04-28T04:42:40.621Z,68.60
2023-04-28T04:45:06.483Z,68.77
2023-04-28T04:47:28.385Z,69.26
2023-04-28T04:49:51.206Z,69.23
2023-04-28T04:52:13.204Z,69.35
2023-04-28T04:54:35.023Z,69.43
2023-04-28T04:56:59.294Z,70.14
2023-04-28T04:59:41.027Z,70.05
2023-04-28T05:02:07.010Z,70.17
2023-04-28T05:04:29.115Z,70.68
2023-04-28T05:06:51.588Z,71.02
2023-04-28T05:09:13.904Z,71.21
2023-04-28T05:11:35.908Z,71.63
2023-04-28T05:13:58.270Z,72.22
2023-04-28T05:16:20.154Z,71.98
2023-04-28T05:19:05.957Z,71.93
2023-04-28T05:21:28.797Z,72.31
2023-04-28T05:23:50.840Z,71.80
2023-04-28T05:26:12.925Z,71.42
2023-04-28T05:28:35.056Z,71.97
2023-04-28T05:30:57.100Z,72.38
2023-04-28T05:33:19.193Z,72.63
2023-04-28T05:35:42.575Z,72.90
2023-04-28T05:38:04.653Z,73.38
2023-04-28T05:40:26.991Z,73.90
2023-04-28T05:42:49.873Z,73.65
2023-04-28T05:45:12.452Z,73.79
2023-04-28T05:47:34.351Z,73.65
2023-04-28T05:49:56.578Z,74.23
2023-04-28T05:52:18.437Z,73.76
2023-04-28T05:54:40.333Z,73.85
2023-04-28T05:57:02.330Z,74.39
2023-04-28T05:59:24.889Z,73.64
2023-04-28T06:01:46.721Z,73.28
2023-04-28T06:04:09.228Z,73.20
2023-04-28T06:06:32.226Z,73.28
2023-04-28T06:08:54.787Z,73.20
2023-04-28T06:11:17.075Z,73.30
2023-04-28T06:13:38.930Z,73.43
2023-04-28T06:16:01.282Z,73.22
2023-04-28T06:18:24.408Z,73.16
2023-04-28T06:20:46.400Z,73.32
2023-04-28T06:23:09.469Z,72.83
2023-04-28T06:25:38.064Z,73.30
2023-04-28T06:27:59.833Z,73.49
2023-04-28T06:30:23.345Z,73.48
2023-04-28T06:32:45.302Z,73.40
2023-04-28T06:35:07.626Z,73.51
2023-04-28T06:37:29.733Z,73.05
2023-04-28T06:39:54.972Z,72.85
2023-04-28T06:42:19.085Z,72.91
2023-04-28T06:44:50.117Z,73.32
2023-04-28T06:47:12.161Z,73.00
2023-04-28T06:49:34.167Z,72.80
2023-04-28T06:51:56.108Z,72.85
2023-04-28T06:54:18.750Z,73.02
2023-04-28T06:56:40.726Z,73.15
2023-04-28T06:59:03.253Z,72.91
2023-04-28T07:01:25.616Z,73.15
2023-04-28T07:03:48.183Z,72.80
2023-04-28T07:06:11.480Z,72.90
2023-04-28T07:08:33.621Z,72.60
2023-04-28T07:10:56.050Z,72.74
2023-04-28T07:13:17.802Z,72.80
2023-04-28T07:15:39.868Z,72.85
2023-04-28T07:18:01.643Z,72.68
2023-04-28T07:20:23.744Z,72.72
2023-04-28T07:22:45.914Z,72.47
2023-04-28T07:25:08.487Z,72.78
2023-04-28T07:27:30.232Z,72.08
2023-04-28T07:29:51.978Z,72.06
2023-04-28T07:32:13.894Z,71.76
2023-04-28T07:34:36.760Z,71.78
2023-04-28T07:36:58.763Z,72.13
2023-04-28T07:39:20.766Z,72.13
2023-04-28T07:41:42.628Z,71.96
2023-04-28T07:44:08.271Z,72.01
2023-04-28T07:46:30.720Z,72.11
2023-04-28T07:48:54.256Z,71.68
2023-04-28T07:51:16.547Z,71.82
2023-04-28T07:53:39.033Z,71.85
2023-04-28T07:56:01.358Z,71.35
2023-04-28T07:58:23.104Z,71.44
2023-04-28T08:00:45.034Z,71.40
2023-04-28T08:03:07.190Z,71.05
2023-04-28T08:05:29.460Z,70.82
2023-04-28T08:07:51.502Z,71.47
2023-04-28T08:10:13.718Z,71.02
2023-04-28T08:12:35.568Z,71.50
2023-04-28T08:14:57.848Z,71.88
2023-04-28T08:17:19.929Z,72.45
2023-04-28T08:19:42.043Z,72.77
2023-04-28T08:22:06.179Z,73.04
2023-04-28T08:24:30.454Z,73.61
2023-04-28T08:26:52.267Z,73.94
2023-04-28T08:29:14.161Z,74.72
2023-04-28T08:31:35.833Z,75.19
2023-04-28T08:33:57.578Z,74.92
2023-04-28T08:36:19.600Z,75.54
2023-04-28T08:38:41.940Z,75.66
2023-04-28T08:41:05.715Z,75.70
2023-04-28T08:43:29.256Z,76.03
2023-04-28T08:45:51.452Z,76.88
2023-04-28T08:48:22.842Z,77.09
2023-04-28T08:50:54.764Z,77.51
2023-04-28T08:53:26.061Z,78.11
2023-04-28T08:55:50.681Z,77.63
2023-04-28T08:58:12.955Z,77.70
2023-04-28T09:00:38.483Z,77.51
2023-04-28T09:03:00.689Z,77.48
2023-04-28T09:05:23.055Z,77.15
2023-04-28T09:07:50.461Z,77.09
2023-04-28T09:10:19.305Z,76.79
2023-04-28T09:12:41.405Z,77.04
2023-04-28T09:15:09.244Z,77.88
2023-04-28T09:17:31.615Z,77.84
2023-04-28T09:19:53.914Z,78.11
2023-04-28T09:22:26.272Z,77.92
2023-04-28T09:24:48.824Z,78.60
2023-04-28T09:27:12.149Z,78.94
2023-04-28T09:29:34.332Z,78.84
2023-04-28T09:32:14.900Z,78.92
2023-04-28T09:34:52.519Z,79.06
2023-04-28T09:37:24.988Z,78.82
2023-04-28T09:39:50.800Z,78.59
2023-04-28T09:42:36.911Z,79.06
2023-04-28T09:44:59.006Z,79.09
2023-04-28T09:47:25.646Z,78.84
2023-04-28T09:50:00.073Z,79.15
2023-04-28T09:52:24.399Z,79.24
2023-04-28T09:54:48.602Z,79.92
2023-04-28T09:57:11.397Z,80.35
2023-04-28T09:59:35.189Z,79.95
2023-04-28T10:01:57.586Z,79.69
2023-04-28T10:04:19.767Z,79.77
2023-04-28T10:06:42.836Z,80.19
2023-04-28T10:09:05.736Z,80.32
2023-04-28T10:11:28.682Z,80.45
2023-04-28T10:13:51.589Z,80.27
2023-04-28T10:16:15.080Z,80.25
2023-04-28T10:18:38.182Z,80.69
2023-04-28T10:21:04.572Z,80.92
2023-04-28T10:24:03.548Z,80.79
2023-04-28T10:26:54.020Z,81.15
2023-04-28T10:29:16.532Z,81.25
2023-04-28T10:31:38.260Z,81.38
2023-04-28T10:34:24.505Z,81.30
2023-04-28T10:36:55.051Z,81.19
2023-04-28T10:39:17.158Z,81.55
2023-04-28T10:41:39.307Z,81.84
2023-04-28T10:44:01.154Z,81.67
2023-04-28T10:46:22.902Z,81.82
2023-04-28T10:48:47.777Z,81.82
2023-04-28T10:51:15.797Z,81.23
2023-04-28T10:53:47.412Z,81.40
2023-04-28T10:56:18.688Z,81.61
2023-04-28T10:58:46.394Z,81.76
2023-04-28T11:01:26.479Z,81.30
2023-04-28T11:03:52.408Z,81.23
2023-04-28T11:06:35.547Z,81.09
2023-04-28T11:09:03.387Z,81.08
2023-04-28T11:11:27.481Z,81.05
2023-04-28T11:13:50.657Z,81.61
2023-04-28T11:16:16.655Z,81.25
2023-04-28T11:19:04.565Z,81.50
2023-04-28T11:21:28.303Z,80.87
2023-04-28T11:23:50.614Z,81.14
2023-04-28T11:26:13.549Z,80.87
2023-04-28T11:28:36.642Z,80.66
2023-04-28T11:31:23.980Z,80.25
2023-04-28T11:33:49.547Z,80.22
2023-04-28T11:36:26.585Z,79.79
2023-04-28T11:38:49.141Z,79.72
2023-04-28T11:41:11.363Z,79.65
2023-04-28T11:43:43.962Z,79.24
2023-04-28T11:46:08.612Z,78.09
2023-04-28T11:48:30.300Z,76.19
2023-04-28T11:50:52.168Z,75.70
2023-04-28T11:53:14.501Z,75.79
2023-04-28T11:55:38.203Z,75.74
2023-04-28T11:58:25.222Z,75.48
2023-04-28T12:01:10.875Z,75.71
2023-04-28T12:03:33.315Z,76.02
2023-04-28T12:05:55.456Z,76.31
2023-04-28T12:08:29.379Z,76.43
2023-04-28T12:11:12.969Z,76.21
2023-04-28T12:13:36.340Z,76.29
2023-04-28T12:16:02.192Z,76.35
2023-04-28T12:18:23.943Z,76.18
2023-04-28T12:20:46.008Z,75.97
2023-04-28T12:23:08.614Z,75.94
2023-04-28T12:25:31.297Z,76.15
2023-04-28T12:28:05.599Z,76.31
2023-04-28T12:30:29.676Z,76.42
2023-04-28T12:32:51.986Z,77.25
2023-04-28T12:35:14.377Z,77.65
2023-04-28T12:37:38.332Z,78.03
2023-04-28T12:40:00.506Z,78.38
2023-04-28T12:42:23.620Z,78.85
2023-04-28T12:44:46.139Z,79.63
2023-04-28T12:47:11.303Z,79.62
2023-04-28T12:49:35.200Z,80.02
2023-04-28T12:51:56.912Z,80.33
2023-04-28T12:54:18.584Z,80.89
2023-04-28T12:56:40.366Z,81.28
2023-04-28T12:59:06.050Z,81.10
2023-04-28T13:01:28.108Z,81.43
2023-04-28T13:03:51.142Z,81.75
2023-04-28T13:06:12.970Z,82.17
2023-04-28T13:08:34.719Z,82.17
2023-04-28T13:10:56.427Z,82.60
2023-04-28T13:13:18.086Z,82.67
2023-04-28T13:15:40.188Z,82.98
2023-04-28T13:18:02.201Z,82.95
2023-04-28T13:20:24.211Z,82.20
2023-04-28T13:22:45.883Z,81.98
2023-04-28T13:25:08.873Z,81.94
2023-04-28T13:27:30.642Z,81.96
2023-04-28T13:29:52.447Z,82.04
2023-04-28T13:32:14.208Z,81.98
2023-04-28T13:34:38.053Z,82.00
2023-04-28T13:36:59.833Z,81.85
2023-04-28T13:39:22.189Z,81.50
2023-04-28T13:41:43.874Z,81.55
2023-04-28T13:44:05.566Z,81.34
2023-04-28T13:46:27.735Z,81.35
2023-04-28T13:48:50.559Z,81.43
2023-04-28T13:51:12.586Z,81.74
2023-04-28T13:53:40.121Z,81.97
2023-04-28T13:56:01.874Z,81.61
2023-04-28T13:58:25.948Z,81.11
2023-04-28T14:00:47.941Z,80.83
2023-04-28T14:03:09.793Z,80.18
2023-04-28T14:05:42.066Z,78.76
2023-04-28T14:08:04.343Z,78.14
2023-04-28T14:10:26.879Z,77.91
2023-04-28T14:12:51.779Z,76.98
2023-04-28T14:15:13.836Z,76.59
2023-04-28T14:17:36.588Z,76.64
2023-04-28T14:19:59.906Z,75.35
2023-04-28T14:22:21.982Z,74.68
2023-04-28T14:24:44.128Z,75.01
2023-04-28T14:27:06.265Z,74.67
2023-04-28T14:29:28.009Z,74.99
2023-04-28T14:31:50.233Z,75.10
2023-04-28T14:34:11.906Z,75.44
2023-04-28T14:36:34.281Z,75.29
2023-04-28T14:38:56.023Z,75.70
2023-04-28T14:41:17.749Z,75.55
2023-04-28T14:43:39.830Z,75.40
2023-04-28T14:46:01.648Z,74.94
2023-04-28T14:48:24.163Z,74.75
2023-04-28T14:50:46.338Z,74.63
2023-04-28T14:53:08.329Z,74.73
2023-04-28T14:55:30.095Z,74.33
2023-04-28T14:57:51.859Z,74.04
2023-04-28T15:00:14.568Z,74.09
2023-04-28T15:02:37.190Z,74.41
2023-04-28T15:04:59.476Z,75.12
2023-04-28T15:07:22.110Z,75.64
2023-04-28T15:09:44.096Z,76.04
2023-04-28T15:12:06.735Z,76.59
2023-04-28T15:14:29.862Z,76.92
2023-04-28T15:16:51.481Z,77.18
2023-04-28T15:19:14.230Z,77.97
2023-04-28T15:21:36.224Z,78.20
2023-04-28T15:23:59.738Z,79.10
2023-04-28T15:26:21.655Z,79.57
2023-04-28T15:28:43.416Z,79.90
2023-04-28T15:31:05.260Z,80.29
2023-04-28T15:33:29.200Z,80.62
2023-04-28T15:35:50.959Z,81.17
2023-04-28T15:38:13.250Z,81.95
2023-04-28T15:40:35.164Z,82.59
2023-04-28T15:42:56.914Z,82.59
2023-04-28T15:45:22.980Z,82.32
2023-04-28T15:47:46.773Z,82.29
2023-04-28T15:50:10.872Z,82.24
2023-04-28T15:52:32.804Z,82.13
2023-04-28T15:54:55.984Z,81.95
2023-04-28T15:57:17.591Z,81.31
2023-04-28T15:59:39.539Z,81.22
2023-04-28T16:02:02.214Z,81.06
2023-04-28T16:04:24.052Z,81.31
2023-04-28T16:06:45.960Z,81.11
2023-04-28T16:09:08.304Z,81.39
2023-04-28T16:11:30.282Z,80.75
2023-04-28T16:13:52.082Z,80.46
2023-04-28T16:16:16.734Z,80.20
2023-04-28T16:18:38.802Z,80.28
2023-04-28T16:21:00.502Z,79.99
2023-04-28T16:23:22.775Z,79.96
2023-04-28T16:25:44.565Z,79.65
2023-04-28T16:28:06.992Z,79.54
2023-04-28T16:30:29.304Z,79.49
2023-04-28T16:32:52.924Z,79.63
2023-04-28T16:35:15.609Z,79.94
2023-04-28T16:37:39.031Z,79.54
2023-04-28T16:40:01.378Z,79.21
2023-04-28T16:42:23.296Z,79.32
2023-04-28T16:44:46.326Z,78.92
2023-04-28T16:47:08.550Z,79.34
2023-04-28T16:49:30.324Z,79.18
2023-04-28T16:52:00.512Z,78.96
2023-04-28T16:54:22.324Z,78.62
2023-04-28T16:56:43.947Z,78.52
2023-04-28T16:59:05.654Z,78.34
2023-04-28T17:01:27.451Z,78.10
2023-04-28T17:03:51.390Z,78.14
2023-04-28T17:06:13.409Z,78.00
2023-04-28T17:08:35.908Z,77.82
2023-04-28T17:10:57.566Z,77.70
2023-04-28T17:13:21.518Z,77.72
2023-04-28T17:15:43.184Z,77.72
2023-04-28T17:18:05.238Z,78.57
2023-04-28T17:20:27.066Z,78.96
2023-04-28T17:22:50.220Z,79.02
2023-04-28T17:25:12.772Z,79.17
2023-04-28T17:27:34.468Z,80.16
2023-04-28T17:29:56.216Z,80.33
2023-04-28T17:32:17.844Z,80.68
2023-04-28T17:34:39.562Z,80.42
2023-04-28T17:37:01.494Z,80.71
2023-04-28T17:39:23.198Z,81.06
2023-04-28T17:41:46.489Z,81.34
2023-04-28T17:44:08.993Z,81.48
2023-04-28T17:46:30.691Z,81.36
2023-04-28T17:48:52.438Z,81.51
2023-04-28T17:51:14.115Z,81.48
2023-04-28T17:53:37.007Z,81.58
2023-04-28T17:56:01.728Z,81.83
2023-04-28T17:58:23.650Z,82.00
2023-04-28T18:00:45.327Z,82.28
2023-04-28T18:03:07.118Z,82.22
2023-04-28T18:05:29.658Z,82.04
2023-04-28T18:07:52.181Z,82.69
2023-04-28T18:10:16.358Z,82.26
2023-04-28T18:12:38.055Z,82.21
2023-04-28T18:15:00.824Z,82.78
2023-04-28T18:17:23.373Z,83.32
2023-04-28T18:19:45.279Z,83.40
2023-04-28T18:22:06.916Z,83.52
2023-04-28T18:24:28.678Z,83.82
2023-04-28T18:26:50.673Z,83.89
2023-04-28T18:29:12.718Z,84.23
2023-04-28T18:31:34.881Z,84.69
2023-04-28T18:33:57.117Z,84.86
2023-04-28T18:36:18.716Z,84.86
2023-04-28T18:38:40.460Z,84.41
2023-04-28T18:41:14.143Z,85.03
2023-04-28T18:43:36.659Z,84.92
2023-04-28T18:46:02.570Z,85.03
2023-04-28T18:48:25.380Z,85.09
2023-04-28T18:50:48.634Z,85.50
2023-04-28T18:53:11.152Z,85.78
2023-04-28T18:55:33.564Z,85.69
2023-04-28T18:57:55.521Z,85.96
2023-04-28T19:00:17.290Z,86.50
2023-04-28T19:02:38.997Z,86.78
2023-04-28T19:05:01.131Z,86.85
2023-04-28T19:07:22.800Z,86.72
2023-04-28T19:09:45.626Z,86.95
2023-04-28T19:12:07.478Z,87.23
2023-04-28T19:14:29.111Z,87.22
2023-04-28T19:16:50.846Z,87.45
2023-04-28T19:19:13.536Z,87.63
2023-04-28T19:21:43.536Z,88.30
2023-04-28T19:24:05.798Z,88.24
2023-04-28T19:26:27.539Z,88.64
2023-04-28T19:28:49.248Z,88.60
2023-04-28T19:31:11.245Z,88.61
2023-04-28T19:33:32.996Z,88.49
2023-04-28T19:35:54.738Z,88.44
2023-04-28T19:38:18.220Z,88.56
2023-04-28T19:40:40.167Z,88.54
2023-04-28T19:43:02.069Z,88.46
2023-04-28T19:45:26.771Z,88.40
2023-04-28T19:47:52.988Z,88.77
2023-04-28T19:50:18.720Z,88.77
2023-04-28T19:52:40.474Z,88.75
2023-04-28T19:55:02.259Z,88.87
2023-04-28T19:57:24.247Z,88.43
2023-04-28T19:59:47.518Z,88.51
2023-04-28T20:02:10.052Z,88.03
2023-04-28T20:04:32.037Z,88.10
2023-04-28T20:06:54.034Z,88.21
2023-04-28T20:09:16.556Z,87.72
2023-04-28T20:11:38.465Z,87.59
2023-04-28T20:14:00.056Z,87.39
2023-04-28T20:16:26.102Z,87.36
2023-04-28T20:18:48.973Z,87.13
2023-04-28T20:21:10.689Z,86.96
2023-04-28T20:23:32.305Z,86.84
2023-04-28T20:25:54.384Z,87.20
2023-04-28T20:28:16.005Z,86.75
2023-04-28T20:30:38.019Z,86.63
2023-04-28T20:33:00.674Z,86.64
2023-04-28T20:35:22.983Z,86.28
2023-04-28T20:37:44.545Z,86.18
2023-04-28T20:40:07.588Z,85.76
2023-04-28T20:42:29.312Z,85.90
2023-04-28T20:44:51.876Z,85.72
2023-04-28T20:47:14.103Z,85.88
2023-04-28T20:49:36.499Z,85.70
2023-04-28T20:52:05.999Z,85.29
2023-04-28T20:54:27.621Z,85.35
2023-04-28T20:56:49.183Z,85.29
2023-04-28T20:59:11.267Z,84.91
2023-04-28T21:01:33.035Z,85.27
2023-04-28T21:03:54.928Z,85.31
2023-04-28T21:06:17.256Z,85.14
2023-04-28T21:08:40.711Z,85.09
2023-04-28T21:11:02.437Z,85.11
2023-04-28T21:13:24.214Z,84.89
2023-04-28T21:15:45.949Z,84.86
2023-04-28T21:18:08.108Z,84.52
2023-04-28T21:20:29.939Z,84.76
2023-04-28T21:22:51.638Z,84.35
2023-04-28T21:25:13.781Z,84.26
2023-04-28T21:27:35.712Z,83.81
2023-04-28T21:29:57.338Z,83.76
2023-04-28T21:32:18.962Z,83.45
2023-04-28T21:34:40.805Z,83.11
2023-04-28T21:37:02.619Z,83.27
2023-04-28T21:39:24.375Z,83.13
2023-04-28T21:41:46.126Z,83.06
2023-04-28T21:44:08.926Z,82.60
2023-04-28T21:46:31.621Z,82.27
2023-04-28T21:48:53.430Z,82.00
2023-04-28T21:51:15.152Z,82.01
2023-04-28T21:53:36.936Z,82.38
2023-04-28T21:55:58.563Z,81.99
2023-04-28T21:58:20.565Z,82.37
2023-04-28T22:00:48.184Z,82.65
2023-04-28T22:03:10.775Z,82.41
2023-04-28T22:05:34.139Z,82.50
2023-04-28T22:07:55.809Z,82.37
2023-04-28T22:10:19.252Z,82.62
2023-04-28T22:12:41.727Z,82.71
2023-04-28T22:15:03.926Z,82.67
2023-04-28T22:17:25.735Z,82.50
2023-04-28T22:19:47.470Z,82.81
2023-04-28T22:22:09.378Z,82.57
2023-04-28T22:24:31.029Z,82.48
2023-04-28T22:26:52.984Z,82.99
2023-04-28T22:29:14.673Z,82.99
2023-04-28T22:31:36.328Z,83.12
2023-04-28T22:33:59.946Z,83.14
2023-04-28T22:36:21.827Z,83.30
2023-04-28T22:38:43.441Z,83.30
2023-04-28T22:41:05.435Z,83.28
2023-04-28T22:43:27.664Z,83.64
2023-04-28T22:45:49.506Z,83.40
2023-04-28T22:48:13.768Z,83.36
2023-04-28T22:50:35.642Z,83.06
2023-04-28T22:52:57.721Z,83.18
2023-04-28T22:55:19.492Z,83.35
2023-04-28T22:57:41.338Z,83.32
2023-04-28T23:00:04.908Z,83.29
2023-04-28T23:02:26.764Z,83.74
2023-04-28T23:04:49.460Z,83.23
2023-04-28T23:07:11.380Z,83.36
2023-04-28T23:09:36.026Z,83.45
2023-04-28T23:11:57.629Z,83.64
2023-04-28T23:14:19.265Z,83.36
2023-04-28T23:16:41.344Z,83.53
2023-04-28T23:19:03.278Z,83.85
2023-04-28T23:21:24.978Z,83.60
2023-04-28T23:23:46.610Z,83.64
2023-04-28T23:26:08.187Z,83.70
2023-04-28T23:28:29.789Z,83.44
2023-04-28T23:30:51.622Z,83.34
2023-04-28T23:33:13.210Z,83.31
2023-04-28T23:35:34.859Z,83.28
2023-04-28T23:37:56.513Z,83.22
2023-04-28T23:40:18.151Z,82.93
2023-04-28T23:42:39.744Z,83.12
2023-04-28T23:45:01.638Z,83.03
2023-04-28T23:47:23.531Z,82.67
2023-04-28T23:49:45.541Z,82.75
2023-04-28T23:52:07.952Z,82.83
2023-04-28T23:54:29.866Z,82.51
2023-04-28T23:56:51.494Z,82.78
2023-04-28T23:59:13.208Z,82.46
